Time;durP1;ratioP1;P1;durP2;ratioP2;P2;SDS_P1;SDS_P2;PMS_P1;PMS_P2;Temp;Humidity;BMP_temperature;BMP_pressure;BME280_temperature;BME280_humidity;BME280_pressure;Samples;Min_cycle;Max_cycle;Signal;HPM_P1;HPM_P2
2022/12/19 00:01:17;;;;;;;80.53;48.42;;;0.30;99.90;;;;;;5053839;28;20025;-71
2022/12/19 00:03:47;;;;;;;;;;;0.30;99.90;;;;;;5054537;28;20509;-73
2022/12/19 00:06:14;;;;;;;89.72;50.55;;;0.30;99.90;;;;;;5054248;28;20371;-72
2022/12/19 00:08:41;;;;;;;84.38;47.65;;;0.20;99.90;;;;;;5053748;28;20037;-75
2022/12/19 00:11:08;;;;;;;101.85;53.28;;;0.30;99.90;;;;;;5051858;28;20036;-74
2022/12/19 00:13:34;;;;;;;86.93;48.28;;;0.20;99.90;;;;;;5037910;28;20391;-74
2022/12/19 00:16:09;;;;;;;81.80;47.50;;;0.30;99.90;;;;;;5053198;28;20477;-74
2022/12/19 00:18:35;;;;;;;82.82;47.67;;;0.20;99.90;;;;;;5054103;28;20120;-75
2022/12/19 00:21:04;;;;;;;84.72;46.10;;;0.20;99.90;;;;;;5053597;28;20032;-74
2022/12/19 00:23:32;;;;;;;82.53;46.33;;;0.20;99.90;;;;;;5053190;28;20108;-74
2022/12/19 00:26:16;;;;;;;80.20;43.92;;;0.20;99.90;;;;;;5042745;28;20048;-74
2022/12/19 00:28:45;;;;;;;76.88;45.67;;;0.20;99.90;;;;;;5049456;28;20395;-74
2022/12/19 00:31:10;;;;;;;77.93;43.42;;;0.30;99.90;;;;;;5034362;28;20473;-74
2022/12/19 00:33:36;;;;;;;82.88;50.85;;;0.30;99.90;;;;;;5052134;28;20033;-75
2022/12/19 00:36:06;;;;;;;81.43;45.63;;;0.30;99.90;;;;;;5052128;28;20013;-72
2022/12/19 00:38:33;;;;;;;86.63;49.30;;;0.20;99.90;;;;;;5048807;28;20025;-74
2022/12/19 00:41:26;;;;;;;81.97;47.97;;;0.20;99.90;;;;;;5052189;28;20016;-73
2022/12/19 00:44:02;;;;;;;86.78;48.50;;;0.30;99.90;;;;;;5031560;28;20051;-74
2022/12/19 00:46:31;;;;;;;82.35;47.58;;;0.30;99.90;;;;;;5032990;28;20025;-74
2022/12/19 00:48:58;;;;;;;84.63;47.35;;;0.40;99.90;;;;;;5033695;28;20499;-74
2022/12/19 00:51:27;;;;;;;81.13;46.42;;;0.40;99.90;;;;;;5052315;28;20021;-73
2022/12/19 00:53:54;;;;;;;80.32;46.20;;;0.40;99.90;;;;;;5047113;28;20033;-73
2022/12/19 00:56:23;;;;;;;81.40;44.35;;;0.40;99.90;;;;;;5053389;28;20021;-73
2022/12/19 00:58:51;;;;;;;89.82;48.17;;;0.40;99.90;;;;;;5052869;28;20029;-74
2022/12/19 01:01:24;;;;;;;91.50;47.65;;;0.50;99.90;;;;;;5034696;28;20484;-75
2022/12/19 01:03:50;;;;;;;86.63;48.17;;;0.50;99.90;;;;;;5035067;28;20036;-74
2022/12/19 01:06:16;;;;;;;81.90;45.00;;;0.60;99.90;;;;;;5035257;28;20079;-74
2022/12/19 01:08:43;;;;;;;83.15;45.00;;;0.50;99.90;;;;;;5052642;28;20115;-75
2022/12/19 01:11:09;;;;;;;73.15;43.80;;;0.50;99.90;;;;;;5032672;28;20123;-73
2022/12/19 01:13:37;;;;;;;72.93;45.10;;;0.50;99.90;;;;;;5033664;28;20041;-74
2022/12/19 01:16:05;;;;;;;76.15;42.13;;;0.60;99.90;;;;;;5052653;28;20075;-73
2022/12/19 01:18:31;;;;;;;74.93;42.58;;;0.70;99.90;;;;;;5052921;28;20060;-75
2022/12/19 01:21:04;;;;;;;70.13;42.35;;;0.70;99.90;;;;;;5052410;28;20504;-74
2022/12/19 01:23:33;;;;;;;69.57;39.85;;;0.70;99.90;;;;;;5053061;28;20044;-74
2022/12/19 01:25:59;;;;;;;71.15;41.63;;;0.70;99.90;;;;;;5052551;28;20032;-74
2022/12/19 01:28:25;;;;;;;70.68;41.20;;;0.70;99.90;;;;;;5034490;28;20057;-74
2022/12/19 01:30:52;;;;;;;66.88;39.55;;;0.80;99.90;;;;;;5052308;28;20064;-74
2022/12/19 01:33:19;;;;;;;66.40;38.88;;;0.80;99.90;;;;;;5052181;28;20057;-75
2022/12/19 01:35:47;;;;;;;71.22;39.05;;;0.80;99.90;;;;;;5044094;28;20086;-74
2022/12/19 01:38:18;;;;;;;64.53;36.53;;;0.90;99.90;;;;;;5047358;28;20021;-74
2022/12/19 01:40:49;;;;;;;63.67;39.80;;;0.90;99.90;;;;;;5034405;28;20025;-74
2022/12/19 01:43:19;;;;;;;62.97;40.80;;;1.10;99.90;;;;;;5035053;28;20029;-74
2022/12/19 01:45:56;;;;;;;64.80;34.80;;;1.20;99.90;;;;;;5034356;28;20031;-75
2022/12/19 01:48:34;;;;;;;52.22;28.27;;;1.20;99.90;;;;;;5051676;28;20037;-74
2022/12/19 01:51:11;;;;;;;54.85;31.17;;;1.20;99.90;;;;;;5052360;28;20035;-75
2022/12/19 01:53:43;;;;;;;54.17;31.25;;;1.20;99.90;;;;;;5034362;28;20082;-74
2022/12/19 01:56:10;;;;;;;54.83;34.63;;;1.20;99.90;;;;;;5052474;28;20032;-74
2022/12/19 01:58:40;;;;;;;55.63;33.95;;;1.20;99.90;;;;;;5033753;28;20472;-74
2022/12/19 02:01:06;;;;;;;59.97;34.40;;;1.20;99.90;;;;;;5051222;28;20060;-74
2022/12/19 02:03:35;;;;;;;61.67;33.75;;;1.20;99.90;;;;;;5051144;28;20060;-75
2022/12/19 02:06:03;;;;;;;61.65;34.30;;;1.30;99.90;;;;;;5052155;28;20107;-75
2022/12/19 02:08:30;;;;;;;57.15;32.75;;;1.40;99.90;;;;;;5033866;28;20399;-74
2022/12/19 02:10:56;;;;;;;53.72;31.23;;;1.40;99.90;;;;;;5033080;28;20112;-75
2022/12/19 02:13:23;;;;;;;58.78;31.63;;;1.40;99.90;;;;;;5051609;28;20116;-74
2022/12/19 02:16:13;;;;;;;61.60;33.03;;;1.40;99.90;;;;;;5033550;28;20064;-74
2022/12/19 02:19:15;;;;;;;57.92;33.28;;;1.40;99.90;;;;;;5034238;28;20040;-74
2022/12/19 02:21:59;;;;;;;59.20;32.65;;;1.40;99.90;;;;;;4939002;28;20046;-74
2022/12/19 02:24:40;;;;;;;62.40;35.30;;;1.40;99.90;;;;;;4966820;28;20054;-74
2022/12/19 02:27:36;;;;;;;61.03;33.67;;;1.50;99.90;;;;;;4945331;29;20158;-75
2022/12/19 02:30:09;;;;;;;62.38;34.70;;;1.40;99.90;;;;;;4970469;28;20371;-75
2022/12/19 02:32:47;;;;;;;64.20;37.63;;;1.50;99.90;;;;;;4955129;28;20078;-74
2022/12/19 02:35:39;;;;;;;71.72;40.45;;;1.40;99.90;;;;;;4954248;28;20516;-73
2022/12/19 02:38:26;;;;;;;65.05;41.05;;;1.40;99.90;;;;;;4954383;28;20039;-74
2022/12/19 02:40:58;;;;;;;63.20;35.30;;;1.40;99.90;;;;;;4951592;29;20514;-74
2022/12/19 02:43:28;;;;;;;70.38;39.50;;;1.40;99.90;;;;;;4958857;28;20043;-74
2022/12/19 02:45:56;;;;;;;63.55;34.88;;;1.40;99.90;;;;;;4954325;28;20541;-74
2022/12/19 02:48:25;;;;;;;61.33;35.05;;;1.40;99.90;;;;;;4951465;29;20036;-74
2022/12/19 02:50:51;;;;;;;50.90;29.33;;;1.30;99.90;;;;;;4965737;28;20031;-74
2022/12/19 02:53:18;;;;;;;58.78;33.90;;;1.40;99.90;;;;;;4954034;28;20540;-74
2022/12/19 02:56:20;;;;;;;54.53;33.67;;;1.50;99.90;;;;;;4953677;28;20034;-74
2022/12/19 02:58:56;;;;;;;60.63;35.63;;;1.50;99.90;;;;;;4996113;28;20041;-73
2022/12/19 03:01:39;;;;;;;57.20;33.03;;;1.60;99.90;;;;;;5033757;28;20021;-74
2022/12/19 03:04:25;;;;;;;52.55;29.98;;;1.60;99.90;;;;;;5033318;28;20039;-73
2022/12/19 03:07:00;;;;;;;51.13;29.98;;;1.60;99.90;;;;;;5037527;28;20423;-74
2022/12/19 03:10:14;;;;;;;54.13;29.42;;;1.60;99.90;;;;;;5033369;28;20048;-74
2022/12/19 03:12:59;;;;;;;49.27;30.53;;;1.60;99.90;;;;;;4935409;29;20050;-75
2022/12/19 03:15:26;;;;;;;57.78;32.33;;;1.70;99.90;;;;;;4952011;28;20046;-74
2022/12/19 03:17:59;;;;;;;47.30;27.35;;;1.70;99.90;;;;;;4939205;28;20046;-73
2022/12/19 03:20:44;;;;;;;49.83;26.25;;;1.70;99.90;;;;;;4955570;28;20031;-72
2022/12/19 03:23:10;;;;;;;47.80;27.08;;;1.70;99.90;;;;;;4955334;28;20494;-73
2022/12/19 03:25:39;;;;;;;46.88;26.08;;;1.70;99.90;;;;;;4954686;28;20027;-73
2022/12/19 03:28:12;;;;;;;50.08;23.83;;;1.70;99.90;;;;;;4953922;28;20035;-74
2022/12/19 03:30:41;;;;;;;42.47;23.23;;;1.70;99.90;;;;;;4946736;29;20151;-73
2022/12/19 03:33:10;;;;;;;45.25;26.27;;;1.70;99.90;;;;;;4962986;28;20039;-73
2022/12/19 03:35:37;;;;;;;45.63;25.30;;;1.70;99.90;;;;;;4954616;28;20073;-73
2022/12/19 03:38:04;;;;;;;46.30;26.20;;;1.70;99.90;;;;;;4954194;28;20039;-74
2022/12/19 03:40:33;;;;;;;44.10;25.98;;;1.70;99.90;;;;;;4954668;28;20487;-74
2022/12/19 03:43:08;;;;;;;45.05;26.70;;;1.70;99.90;;;;;;4976913;28;20380;-74
2022/12/19 03:45:53;;;;;;;47.05;24.23;;;1.70;99.90;;;;;;5034388;28;20033;-74
2022/12/19 03:48:23;;;;;;;47.03;27.05;;;1.70;99.90;;;;;;5021678;28;20052;-74
2022/12/19 03:51:03;;;;;;;48.40;26.67;;;1.70;99.90;;;;;;5026151;28;20034;-73
2022/12/19 03:53:46;;;;;;;48.88;26.92;;;1.70;99.90;;;;;;5023504;28;20481;-73
2022/12/19 03:56:37;;;;;;;42.85;24.42;;;1.70;99.90;;;;;;5034544;28;20021;-73
2022/12/19 03:59:16;;;;;;;36.53;20.65;;;1.70;99.90;;;;;;5034562;28;20026;-74
2022/12/19 04:01:42;;;;;;;41.28;21.65;;;1.70;99.90;;;;;;5033247;28;20492;-74
2022/12/19 04:04:09;;;;;;;41.50;25.38;;;1.60;99.90;;;;;;5033782;28;20068;-73
2022/12/19 04:06:36;;;;;;;46.58;24.92;;;1.60;99.90;;;;;;5024144;28;20499;-73
2022/12/19 04:09:02;;;;;;;39.35;22.02;;;1.60;99.90;;;;;;5022757;28;20037;-74
2022/12/19 04:11:37;;;;;;;38.58;23.75;;;1.60;99.90;;;;;;5033196;28;20025;-74
2022/12/19 04:14:12;;;;;;;38.03;22.05;;;1.60;99.90;;;;;;5033332;28;20032;-73
2022/12/19 04:16:48;;;;;;;41.22;22.77;;;1.60;99.90;;;;;;5033716;28;20473;-74
2022/12/19 04:19:28;;;;;;;40.33;21.88;;;1.60;99.90;;;;;;5034098;28;20109;-73
2022/12/19 04:22:33;;;;;;;37.90;22.17;;;1.50;99.90;;;;;;5046158;28;20069;-74
2022/12/19 04:25:00;;;;;;;43.75;22.65;;;1.50;99.90;;;;;;5047806;28;20433;-73
2022/12/19 04:27:27;;;;;;;40.25;22.45;;;1.50;99.90;;;;;;5052279;28;20066;-74
2022/12/19 04:29:56;;;;;;;38.00;20.85;;;1.50;99.90;;;;;;5035606;28;20066;-74
2022/12/19 04:32:24;;;;;;;41.17;21.40;;;1.50;99.90;;;;;;5052130;28;20067;-73
2022/12/19 04:34:49;;;;;;;39.78;19.95;;;1.40;99.90;;;;;;5053296;28;20530;-73
2022/12/19 04:37:15;;;;;;;40.75;21.35;;;1.40;99.90;;;;;;5053862;28;20013;-73
2022/12/19 04:39:41;;;;;;;44.50;22.65;;;1.40;99.90;;;;;;5052845;28;20528;-73
2022/12/19 04:42:07;;;;;;;44.28;23.33;;;1.40;99.90;;;;;;5053654;28;20112;-75
2022/12/19 04:44:33;;;;;;;38.28;23.05;;;1.40;99.90;;;;;;5041382;28;20362;-74
2022/12/19 04:46:59;;;;;;;44.95;24.58;;;1.40;99.90;;;;;;5053084;28;20104;-73
2022/12/19 04:49:24;;;;;;;42.53;22.83;;;1.40;99.90;;;;;;5046433;28;20454;-74
2022/12/19 04:51:51;;;;;;;37.45;20.73;;;1.30;99.90;;;;;;5053174;28;20120;-72
2022/12/19 04:54:17;;;;;;;33.47;19.38;;;1.30;99.90;;;;;;5053580;28;20032;-73
2022/12/19 04:56:43;;;;;;;38.25;21.15;;;1.30;99.90;;;;;;5053035;28;20032;-74
2022/12/19 04:59:09;;;;;;;38.85;19.17;;;1.20;99.90;;;;;;5053083;28;20082;-73
2022/12/19 05:01:35;;;;;;;41.92;23.58;;;1.20;99.90;;;;;;5043724;28;20021;-72
2022/12/19 05:04:01;;;;;;;38.50;23.08;;;1.20;99.90;;;;;;5048619;28;20068;-73
2022/12/19 05:06:27;;;;;;;44.20;23.75;;;1.30;99.90;;;;;;5044979;28;20036;-73
2022/12/19 05:08:53;;;;;;;40.17;22.30;;;1.30;99.90;;;;;;5043699;28;20484;-73
2022/12/19 05:11:18;;;;;;;42.55;24.42;;;1.30;99.90;;;;;;5042002;28;20018;-74
2022/12/19 05:13:44;;;;;;;41.78;22.55;;;1.20;99.90;;;;;;5052833;28;20496;-73
2022/12/19 05:16:11;;;;;;;42.30;23.00;;;1.20;99.90;;;;;;5051816;28;20056;-73
2022/12/19 05:18:39;;;;;;;38.95;22.00;;;1.30;99.90;;;;;;5039791;28;20082;-75
2022/12/19 05:21:05;;;;;;;44.75;24.70;;;1.30;99.90;;;;;;5052097;28;20037;-75
2022/12/19 05:23:31;;;;;;;41.42;21.95;;;1.30;99.90;;;;;;5052406;28;20078;-74
2022/12/19 05:25:58;;;;;;;38.78;23.55;;;1.40;99.90;;;;;;5052060;28;20396;-74
2022/12/19 05:28:24;;;;;;;44.03;25.08;;;1.30;99.90;;;;;;5052133;28;20029;-74
2022/12/19 05:30:49;;;;;;;47.63;28.17;;;1.40;99.90;;;;;;5037121;28;20366;-75
2022/12/19 05:33:15;;;;;;;49.00;28.73;;;1.40;99.90;;;;;;5048461;28;20068;-75
2022/12/19 05:35:41;;;;;;;39.50;22.98;;;1.40;99.90;;;;;;5052162;28;20040;-76
2022/12/19 05:38:07;;;;;;;47.53;24.00;;;1.30;99.90;;;;;;5051493;28;20044;-75
2022/12/19 05:40:33;;;;;;;46.40;25.00;;;1.40;99.90;;;;;;5051524;28;20044;-75
2022/12/19 05:42:58;;;;;;;40.72;23.40;;;1.30;99.90;;;;;;5051958;28;20028;-75
2022/12/19 05:45:24;;;;;;;43.85;25.88;;;1.30;99.90;;;;;;5051602;28;20024;-75
2022/12/19 05:47:50;;;;;;;43.85;26.38;;;1.30;99.90;;;;;;5052044;28;20033;-76
2022/12/19 05:50:17;;;;;;;41.72;23.75;;;1.30;99.90;;;;;;5051724;28;20029;-76
2022/12/19 05:52:49;;;;;;;37.75;21.17;;;1.30;99.90;;;;;;5052171;28;20026;-76
2022/12/19 05:55:16;;;;;;;37.15;18.52;;;1.30;99.90;;;;;;5051972;28;20035;-75
2022/12/19 05:57:42;;;;;;;38.08;20.83;;;1.30;99.90;;;;;;5051849;28;20013;-75
2022/12/19 06:00:08;;;;;;;39.00;19.42;;;1.20;99.90;;;;;;5051733;28;20098;-75
2022/12/19 06:02:38;;;;;;;36.55;18.45;;;1.20;99.90;;;;;;5048112;28;20029;-75
2022/12/19 06:05:04;;;;;;;33.08;19.05;;;1.20;99.90;;;;;;5051931;28;20032;-74
2022/12/19 06:07:30;;;;;;;35.47;19.67;;;1.10;99.90;;;;;;5051522;28;20021;-76
2022/12/19 06:09:56;;;;;;;37.53;19.27;;;1.00;99.90;;;;;;5051357;28;20055;-75
2022/12/19 06:12:22;;;;;;;36.75;21.45;;;1.00;99.90;;;;;;5051261;28;20025;-75
2022/12/19 06:14:48;;;;;;;35.78;19.85;;;0.90;99.90;;;;;;5051762;28;20025;-75
2022/12/19 06:17:14;;;;;;;33.90;17.88;;;0.90;99.90;;;;;;5051065;28;20100;-75
2022/12/19 06:19:40;;;;;;;42.67;22.48;;;0.90;99.90;;;;;;5052045;28;20021;-75
2022/12/19 06:22:05;;;;;;;55.10;28.10;;;0.80;99.90;;;;;;5051325;28;20098;-75
2022/12/19 06:24:31;;;;;;;43.95;24.83;;;0.80;99.90;;;;;;5050397;28;20025;-75
2022/12/19 06:26:57;;;;;;;50.88;28.77;;;0.80;99.90;;;;;;5051249;28;20028;-76
2022/12/19 06:29:23;;;;;;;48.22;25.23;;;0.70;99.90;;;;;;5051802;28;20499;-75
2022/12/19 06:31:48;;;;;;;41.00;22.42;;;0.70;99.90;;;;;;5052022;28;20053;-75
2022/12/19 06:34:15;;;;;;;42.10;22.63;;;0.80;99.90;;;;;;5050879;28;20428;-75
2022/12/19 06:36:40;;;;;;;40.60;21.83;;;0.70;99.90;;;;;;5051900;28;20028;-76
2022/12/19 06:39:06;;;;;;;38.17;20.75;;;0.70;99.90;;;;;;5051287;28;20028;-75
2022/12/19 06:44:17;;;;;;;40.67;22.85;;;0.80;99.90;;;;;;5042519;28;20036;-75
2022/12/19 06:46:43;;;;;;;42.83;22.35;;;0.80;99.90;;;;;;5038197;28;20036;-75
2022/12/19 06:49:10;;;;;;;40.22;23.25;;;0.80;99.90;;;;;;5050748;28;20112;-76
2022/12/19 06:51:36;;;;;;;41.65;21.10;;;0.90;99.90;;;;;;5054215;28;20017;-75
2022/12/19 06:54:02;;;;;;;34.70;20.05;;;1.00;99.90;;;;;;5055855;28;20031;-74
2022/12/19 06:56:28;;;;;;;37.38;21.15;;;0.90;99.90;;;;;;5055477;28;20028;-75
2022/12/19 06:58:53;;;;;;;36.08;20.50;;;0.90;99.90;;;;;;5055672;28;20025;-76
2022/12/19 07:01:40;;;;;;;47.75;24.88;;;0.90;99.90;;;;;;5048571;28;20370;-75
2022/12/19 07:04:09;;;;;;;41.42;22.67;;;0.90;99.90;;;;;;5037378;28;20025;-76
2022/12/19 07:06:35;;;;;;;34.03;20.33;;;0.90;99.90;;;;;;5055761;28;20032;-76
2022/12/19 07:09:01;;;;;;;42.45;23.05;;;0.90;99.90;;;;;;5052730;28;21065;-75
2022/12/19 07:11:27;;;;;;;41.92;22.67;;;1.00;99.90;;;;;;5045654;28;20036;-75
2022/12/19 07:13:53;;;;;;;41.25;21.65;;;0.90;99.90;;;;;;5054651;28;20029;-76
2022/12/19 07:16:19;;;;;;;37.28;22.00;;;1.10;99.90;;;;;;5054640;28;20063;-75
2022/12/19 07:18:45;;;;;;;43.78;24.52;;;1.10;99.90;;;;;;5053161;28;20029;-76
2022/12/19 07:21:10;;;;;;;37.53;21.52;;;1.20;99.90;;;;;;5054606;28;20123;-75
2022/12/19 07:23:37;;;;;;;35.28;21.65;;;1.20;99.90;;;;;;5054584;28;20499;-75
2022/12/19 07:26:03;;;;;;;43.28;25.60;;;1.20;99.90;;;;;;5055376;28;20020;-75
2022/12/19 07:28:29;;;;;;;39.30;20.00;;;1.20;99.90;;;;;;5050597;28;20120;-75
2022/12/19 07:30:55;;;;;;;39.30;22.23;;;1.40;99.90;;;;;;5041411;28;20055;-74
2022/12/19 07:33:21;;;;;;;37.47;20.42;;;1.40;99.90;;;;;;5054562;28;20162;-77
2022/12/19 07:35:47;;;;;;;42.53;22.45;;;1.50;99.90;;;;;;5053733;28;20454;-77
2022/12/19 07:38:13;;;;;;;35.53;19.05;;;1.70;99.90;;;;;;5054706;28;20112;-77
2022/12/19 07:40:38;;;;;;;32.25;19.38;;;1.80;99.90;;;;;;5054725;28;20104;-74
2022/12/19 07:43:05;;;;;;;34.45;19.85;;;1.80;99.90;;;;;;5054621;28;20020;-76
2022/12/19 07:45:32;;;;;;;37.65;20.65;;;1.90;99.90;;;;;;5052810;28;20032;-76
2022/12/19 07:48:02;;;;;;;34.05;20.42;;;1.90;99.90;;;;;;5054379;28;20111;-75
2022/12/19 07:50:28;;;;;;;35.40;21.95;;;2.00;99.90;;;;;;5054204;28;20116;-75
2022/12/19 07:52:55;;;;;;;45.80;24.48;;;2.10;99.90;;;;;;5054247;28;20028;-75
2022/12/19 07:55:21;;;;;;;46.85;26.10;;;2.20;99.90;;;;;;5051408;28;20116;-77
2022/12/19 07:57:47;;;;;;;43.25;25.08;;;2.20;99.90;;;;;;5054406;28;20152;-75
2022/12/19 08:00:13;;;;;;;43.25;23.13;;;2.00;99.90;;;;;;5053996;28;20040;-76
2022/12/19 08:02:39;;;;;;;48.35;26.52;;;2.10;99.90;;;;;;5053903;28;20024;-76
2022/12/19 08:05:05;;;;;;;41.90;23.95;;;2.00;99.90;;;;;;5053937;28;20052;-76
2022/12/19 08:07:31;;;;;;;40.78;25.02;;;2.10;99.90;;;;;;5053870;28;20043;-76
2022/12/19 08:09:57;;;;;;;40.13;21.45;;;2.10;99.90;;;;;;5054278;28;20047;-77
2022/12/19 08:12:23;;;;;;;40.28;23.70;;;2.10;99.90;;;;;;5045299;28;20033;-77
2022/12/19 08:14:49;;;;;;;45.20;26.52;;;2.20;99.90;;;;;;5053913;28;20032;-76
2022/12/19 08:17:15;;;;;;;44.35;25.88;;;2.40;99.90;;;;;;5049527;28;20029;-76
2022/12/19 08:19:41;;;;;;;43.00;25.50;;;2.50;99.90;;;;;;5053930;28;20087;-76
2022/12/19 08:22:07;;;;;;;44.75;25.73;;;2.50;99.90;;;;;;5053654;28;20480;-77
2022/12/19 08:24:33;;;;;;;39.65;21.55;;;2.50;99.90;;;;;;5053266;28;20025;-77
2022/12/19 08:26:59;;;;;;;37.63;21.38;;;2.60;99.90;;;;;;5053868;28;20029;-76
2022/12/19 08:29:24;;;;;;;42.75;25.77;;;2.60;99.90;;;;;;5050690;28;20033;-77
2022/12/19 08:31:50;;;;;;;37.95;23.65;;;2.60;99.90;;;;;;5053268;28;20039;-77
2022/12/19 08:34:16;;;;;;;38.15;22.13;;;2.60;99.90;;;;;;5053536;28;20115;-77
2022/12/19 08:36:42;;;;;;;35.10;20.15;;;2.60;99.90;;;;;;5035614;28;20441;-77
2022/12/19 08:39:08;;;;;;;40.97;21.80;;;2.60;99.90;;;;;;5053164;28;20067;-77
2022/12/19 08:41:34;;;;;;;41.88;24.38;;;2.60;99.90;;;;;;5053105;28;20388;-77
2022/12/19 08:44:00;;;;;;;42.05;24.52;;;2.70;99.90;;;;;;5035176;28;20048;-77
2022/12/19 08:46:26;;;;;;;39.38;22.45;;;2.80;99.90;;;;;;5053018;28;20101;-77
2022/12/19 08:48:52;;;;;;;42.90;23.02;;;2.80;99.90;;;;;;5053004;28;20116;-77
2022/12/19 08:51:18;;;;;;;40.17;24.60;;;2.90;99.90;;;;;;5053272;28;20108;-76
2022/12/19 08:53:45;;;;;;;41.88;23.30;;;3.10;99.90;;;;;;5052524;28;20429;-76
2022/12/19 08:56:17;;;;;;;37.17;21.80;;;3.10;99.90;;;;;;5052970;28;20097;-77
2022/12/19 08:58:43;;;;;;;37.67;21.73;;;3.30;99.90;;;;;;5053267;28;20056;-75
2022/12/19 09:01:14;;;;;;;35.75;19.50;;;3.20;99.90;;;;;;5051755;28;20448;-75
2022/12/19 09:03:41;;;;;;;35.80;21.10;;;3.20;99.90;;;;;;5049207;28;20126;-76
2022/12/19 09:06:09;;;;;;;32.55;20.48;;;3.20;99.90;;;;;;5040476;28;20024;-76
2022/12/19 09:08:36;;;;;;;41.58;23.70;;;3.00;99.90;;;;;;5052752;28;20060;-76
2022/12/19 09:11:07;;;;;;;41.58;22.48;;;3.10;99.90;;;;;;5052946;28;20048;-76
2022/12/19 09:13:34;;;;;;;42.33;22.98;;;3.10;99.90;;;;;;5050186;28;20605;-76
2022/12/19 09:16:10;;;;;;;41.10;24.20;;;3.10;99.90;;;;;;5053179;28;20027;-76
2022/12/19 09:18:36;;;;;;;39.42;23.27;;;3.10;99.90;;;;;;5052429;28;20020;-76
2022/12/19 09:21:02;;;;;;;43.00;25.27;;;3.10;99.90;;;;;;5052627;28;20041;-75
2022/12/19 09:23:30;;;;;;;41.20;22.77;;;3.10;99.90;;;;;;5051062;28;20067;-76
2022/12/19 09:26:04;;;;;;;44.42;24.00;;;2.90;99.90;;;;;;5052392;28;20036;-76
2022/12/19 09:28:30;;;;;;;39.88;23.20;;;3.00;99.90;;;;;;5034362;28;20484;-77
2022/12/19 09:31:02;;;;;;;40.53;23.42;;;2.90;99.90;;;;;;5052146;28;20023;-74
2022/12/19 09:33:30;;;;;;;37.97;23.65;;;3.00;99.90;;;;;;5040070;28;20479;-74
2022/12/19 09:35:55;;;;;;;38.38;23.25;;;3.10;99.90;;;;;;5032680;28;20064;-74
2022/12/19 09:38:24;;;;;;;41.47;23.05;;;3.10;99.90;;;;;;5052734;28;20064;-73
2022/12/19 09:40:56;;;;;;;38.85;23.23;;;3.30;99.90;;;;;;5051932;28;20036;-75
2022/12/19 09:43:44;;;;;;;38.50;21.83;;;3.40;99.90;;;;;;5035051;28;20365;-74
2022/12/19 09:46:15;;;;;;;40.25;22.05;;;3.50;99.90;;;;;;5046281;28;20301;-76
2022/12/19 09:48:42;;;;;;;49.72;25.00;;;3.50;99.90;;;;;;5050931;28;20036;-75
2022/12/19 09:51:32;;;;;;;55.50;32.60;;;3.60;99.90;;;;;;5051449;28;20392;-74
2022/12/19 09:54:22;;;;;;;41.92;25.05;;;3.70;99.90;;;;;;5051087;28;20041;-74
2022/12/19 09:56:58;;;;;;;36.58;21.75;;;3.70;99.90;;;;;;5042589;28;20397;-75
2022/12/19 09:59:41;;;;;;;40.10;22.85;;;3.70;99.90;;;;;;5052183;28;20033;-75
2022/12/19 10:02:29;;;;;;;38.58;22.05;;;3.60;99.90;;;;;;5037662;28;20034;-75
2022/12/19 10:05:03;;;;;;;37.58;22.35;;;3.70;99.90;;;;;;5051870;28;20052;-75
2022/12/19 10:07:29;;;;;;;36.63;22.05;;;3.70;99.90;;;;;;5052124;28;20037;-76
2022/12/19 10:09:55;;;;;;;40.92;23.45;;;3.70;99.90;;;;;;5051992;28;20546;-76
2022/12/19 10:12:41;;;;;;;43.75;26.88;;;3.70;99.90;;;;;;5051955;28;20029;-75
2022/12/19 10:15:32;;;;;;;42.38;23.38;;;3.70;99.90;;;;;;5050618;28;20067;-75
2022/12/19 10:18:14;;;;;;;48.67;27.63;;;3.70;99.90;;;;;;5050130;28;20116;-75
2022/12/19 10:21:06;;;;;;;46.03;27.45;;;3.60;99.90;;;;;;5049631;28;20079;-75
2022/12/19 10:23:37;;;;;;;48.60;27.52;;;3.80;99.90;;;;;;5043691;28;20041;-75
2022/12/19 10:26:16;;;;;;;44.80;26.85;;;3.90;99.90;;;;;;5047819;28;20036;-76
2022/12/19 10:28:59;;;;;;;43.85;25.55;;;3.80;99.90;;;;;;5046591;28;20090;-76
2022/12/19 10:31:46;;;;;;;36.78;22.38;;;3.90;99.90;;;;;;5050112;28;20108;-75
2022/12/19 10:34:21;;;;;;;37.53;22.23;;;3.70;99.90;;;;;;5038645;28;20488;-76
2022/12/19 10:36:57;;;;;;;43.00;24.50;;;3.70;99.90;;;;;;5040197;28;20021;-76
2022/12/19 10:39:28;;;;;;;38.22;22.15;;;3.60;99.90;;;;;;5039151;28;20041;-75
2022/12/19 10:41:58;;;;;;;33.05;19.88;;;3.60;99.90;;;;;;5043539;28;20033;-75
2022/12/19 10:44:27;;;;;;;36.70;21.85;;;3.60;99.90;;;;;;5045874;28;20068;-75
2022/12/19 10:46:52;;;;;;;42.50;24.75;;;3.60;99.90;;;;;;5037262;28;20066;-74
2022/12/19 10:49:25;;;;;;;41.03;24.33;;;3.70;99.90;;;;;;5037004;28;20135;-75
2022/12/19 10:52:02;;;;;;;49.22;26.08;;;3.80;99.90;;;;;;5042525;28;20033;-75
2022/12/19 10:54:37;;;;;;;42.92;26.23;;;4.00;99.90;;;;;;5026912;28;20103;-75
2022/12/19 10:57:21;;;;;;;41.90;25.63;;;4.10;99.90;;;;;;5050374;28;20388;-75
2022/12/19 10:59:57;;;;;;;57.20;30.95;;;4.20;99.90;;;;;;5047094;28;20099;-75
2022/12/19 11:02:38;;;;;;;40.60;23.80;;;4.20;99.90;;;;;;5040030;28;20029;-75
2022/12/19 11:05:24;;;;;;;31.52;20.38;;;4.20;99.90;;;;;;5045879;28;20079;-75
2022/12/19 11:08:09;;;;;;;34.25;20.27;;;4.20;99.90;;;;;;5049256;28;20108;-74
2022/12/19 11:10:40;;;;;;;47.58;25.02;;;4.30;99.90;;;;;;5044966;28;20044;-75
2022/12/19 11:13:25;;;;;;;47.95;28.70;;;4.40;99.90;;;;;;5048205;28;20028;-75
2022/12/19 11:15:54;;;;;;;36.85;21.10;;;4.50;99.90;;;;;;5037049;28;20554;-75
2022/12/19 11:18:21;;;;;;;31.67;17.77;;;4.50;99.90;;;;;;5050106;28;20029;-75
2022/12/19 11:21:03;;;;;;;37.40;22.42;;;4.60;99.90;;;;;;5005444;28;1144508;-74
2022/12/19 11:23:30;;;;;;;48.80;30.08;;;4.60;99.90;;;;;;5050256;28;20384;-75
2022/12/19 11:26:01;;;;;;;51.20;28.25;;;4.80;99.90;;;;;;5064258;28;20468;-75
2022/12/19 11:28:38;;;;;;;50.42;27.50;;;4.70;99.90;;;;;;5048668;28;20033;-75
2022/12/19 11:31:06;;;;;;;38.78;20.27;;;4.90;99.90;;;;;;5049562;28;20028;-75
2022/12/19 11:33:32;;;;;;;36.50;20.15;;;4.80;99.90;;;;;;5050746;28;20056;-75
2022/12/19 11:36:00;;;;;;;46.83;25.88;;;4.70;99.90;;;;;;5033662;28;20037;-75
2022/12/19 11:38:47;;;;;;;30.95;15.65;;;4.60;99.90;;;;;;5054551;28;20167;-75
2022/12/19 11:41:21;;;;;;;28.42;14.25;;;4.60;99.90;;;;;;5054291;28;20117;-74
2022/12/19 11:43:57;;;;;;;28.30;15.25;;;4.60;99.90;;;;;;5054784;28;20029;-75
2022/12/19 11:46:37;;;;;;;27.77;16.60;;;4.50;99.90;;;;;;5054208;28;20480;-75
2022/12/19 11:49:27;;;;;;;28.58;17.50;;;4.60;99.90;;;;;;5054285;28;20080;-74
2022/12/19 11:52:20;;;;;;;27.10;14.32;;;4.60;99.90;;;;;;5043538;28;20079;-75
2022/12/19 11:54:49;;;;;;;;;;;4.60;99.90;;;;;;5054525;28;20055;-74
2022/12/19 11:57:15;;;;;;;31.83;19.67;;;4.70;99.90;;;;;;5054288;28;19911;-75
2022/12/19 11:59:41;;;;;;;30.98;17.50;;;4.70;99.90;;;;;;5054314;28;20116;-75
2022/12/19 12:02:46;;;;;;;31.05;17.00;;;4.70;99.90;;;;;;5054538;28;20021;-75
2022/12/19 12:05:26;;;;;;;26.80;15.80;;;4.80;99.90;;;;;;5054207;28;20032;-75
2022/12/19 12:08:24;;;;;;;31.05;16.92;;;4.80;99.90;;;;;;5040983;28;20100;-75
2022/12/19 12:10:58;;;;;;;28.88;15.90;;;4.80;99.90;;;;;;5054097;28;20029;-74
2022/12/19 12:13:56;;;;;;;32.22;19.50;;;4.70;99.90;;;;;;5054029;28;20036;-74
2022/12/19 12:16:35;;;;;;;33.38;18.95;;;4.70;99.90;;;;;;4963788;28;20421;-74
2022/12/19 12:19:36;;;;;;;31.27;17.55;;;4.70;99.90;;;;;;4973006;28;20047;-74
2022/12/19 12:22:35;;;;;;;32.45;16.75;;;4.80;99.90;;;;;;4975441;28;20115;-74
2022/12/19 12:25:07;;;;;;;28.95;16.23;;;4.80;99.90;;;;;;4973044;28;20027;-74
2022/12/19 12:27:48;;;;;;;35.20;22.33;;;4.70;99.90;;;;;;4976688;28;20093;-74
2022/12/19 12:30:17;;;;;;;34.50;20.85;;;4.80;99.90;;;;;;4975006;28;20050;-74
2022/12/19 12:32:57;;;;;;;40.97;22.50;;;4.80;99.90;;;;;;4972972;28;20039;-76
2022/12/19 12:35:26;;;;;;;35.67;17.35;;;4.90;99.90;;;;;;4972254;28;20580;-75
2022/12/19 12:38:19;;;;;;;43.00;23.52;;;4.80;99.90;;;;;;4972836;28;20027;-74
2022/12/19 12:40:53;;;;;;;33.30;20.25;;;4.90;99.90;;;;;;4959741;28;20042;-74
2022/12/19 12:43:36;;;;;;;33.42;20.83;;;4.90;99.90;;;;;;4972750;28;20038;-75
2022/12/19 12:46:03;;;;;;;30.25;15.90;;;4.90;99.90;;;;;;4952688;28;20082;-76
2022/12/19 12:48:55;;;;;;;32.42;16.73;;;4.80;99.90;;;;;;4954131;28;20439;-75
2022/12/19 12:51:24;;;;;;;29.77;15.90;;;4.80;99.90;;;;;;4957360;28;20584;-75
2022/12/19 12:53:57;;;;;;;32.80;19.17;;;4.80;99.90;;;;;;4994038;28;20026;-75
2022/12/19 12:56:24;;;;;;;34.75;20.25;;;4.90;99.90;;;;;;5017911;28;20025;-75
2022/12/19 12:58:50;;;;;;;31.58;16.92;;;4.90;99.90;;;;;;5012517;28;20026;-74
2022/12/19 13:01:21;;;;;;;32.17;18.05;;;4.90;99.90;;;;;;5012613;28;20077;-74
2022/12/19 13:04:16;;;;;;;29.45;16.67;;;4.90;99.90;;;;;;5021749;28;20025;-74